Time;durP1;ratioP1;P1;durP2;ratioP2;P2;SDS_P1;SDS_P2;PMS_P1;PMS_P2;Temp;Humidity;BMP_temperature;BMP_pressure;BME280_temperature;BME280_humidity;BME280_pressure;Samples;Min_cycle;Max_cycle;Signal;HPM_P1;HPM_P2
2023/04/08 00:01:43;;;;;;;16.40;11.97;;;;;;;7.79;100.00;153360.28;5080471;28;20442;-76
2023/04/08 00:04:11;;;;;;;15.70;11.57;;;;;;;7.81;100.00;153365.50;5074922;28;20536;-76
2023/04/08 00:06:37;;;;;;;14.30;11.60;;;;;;;7.84;100.00;153374.50;5057494;28;20457;-76
2023/04/08 00:09:04;;;;;;;15.37;11.13;;;;;;;7.83;100.00;153371.94;5075705;28;20860;-76
2023/04/08 00:11:31;;;;;;;16.70;11.97;;;;;;;7.81;100.00;153365.50;5072747;28;20438;-76
2023/04/08 00:13:59;;;;;;;19.93;12.43;;;;;;;7.79;100.00;153361.59;5069875;28;20456;-78
2023/04/08 00:16:26;;;;;;;16.13;12.63;;;;;;;7.81;100.00;153365.50;5064839;28;20533;-78
2023/04/08 00:18:53;;;;;;;14.30;11.27;;;;;;;7.80;100.00;153364.19;5081702;28;20470;-77
2023/04/08 00:21:20;;;;;;;17.17;12.87;;;;;;;7.80;100.00;153364.19;5093622;28;20468;-77
2023/04/08 00:23:46;;;;;;;19.13;12.77;;;;;;;7.77;100.00;153356.44;5092265;28;20928;-77
2023/04/08 00:26:13;;;;;;;16.23;12.43;;;;;;;7.77;100.00;153355.13;5076496;28;20492;-77
2023/04/08 00:28:41;;;;;;;15.90;12.33;;;;;;;7.77;100.00;153356.44;5074703;28;20449;-77
2023/04/08 00:31:09;;;;;;;15.53;11.63;;;;;;;7.76;100.00;153352.53;5073955;28;20441;-77
2023/04/08 00:33:36;;;;;;;14.00;11.10;;;;;;;7.73;100.00;153344.81;5073407;28;20971;-77
2023/04/08 00:36:03;;;;;;;16.73;11.87;;;;;;;7.76;100.00;153353.84;5077590;28;20892;-77
2023/04/08 00:38:30;;;;;;;16.60;12.03;;;;;;;7.74;100.00;153347.38;5079409;28;20469;-77
2023/04/08 00:40:57;;;;;;;15.87;11.50;;;;;;;7.72;100.00;153343.53;5087992;28;20465;-77
2023/04/08 00:43:24;;;;;;;14.87;11.17;;;;;;;7.71;100.00;153339.63;5076215;28;20520;-77
2023/04/08 00:45:50;;;;;;;15.37;11.73;;;;;;;7.69;100.00;153335.75;5069546;28;21008;-77
2023/04/08 00:48:18;;;;;;;18.37;12.97;;;;;;;7.68;100.00;153331.84;5062836;28;20476;-77
2023/04/08 00:50:46;;;;;;;18.77;13.27;;;;;;;7.70;100.00;153338.38;5077628;28;20442;-78
2023/04/08 00:53:13;;;;;;;16.30;12.60;;;;;;;7.70;100.00;153337.06;5055682;28;20439;-77
2023/04/08 00:55:40;;;;;;;17.93;13.10;;;;;;;7.68;100.00;153331.84;5061587;28;20502;-77
2023/04/08 00:58:07;;;;;;;16.43;12.20;;;;;;;7.67;100.00;153329.31;5067925;28;20478;-77
2023/04/08 01:00:34;;;;;;;17.03;14.30;;;;;;;7.72;100.00;153342.22;5068589;28;20532;-77
2023/04/08 01:03:07;;;;;;;15.77;11.47;;;;;;;7.68;100.00;153331.84;5058653;28;20453;-77
2023/04/08 01:05:42;;;;;;;17.10;12.93;;;;;;;7.66;100.00;153328.00;5056467;28;20447;-77
2023/04/08 01:08:10;;;;;;;16.73;11.80;;;;;;;7.66;100.00;153326.72;5071708;28;20474;-77
2023/04/08 01:10:41;;;;;;;16.43;13.07;;;;;;;7.63;100.00;153318.94;5056201;28;20529;-77
2023/04/08 01:13:10;;;;;;;15.30;12.73;;;;;;;7.63;100.00;153320.25;5091509;28;20438;-77
2023/04/08 01:15:40;;;;;;;16.67;11.97;;;;;;;7.66;100.00;153326.72;5073741;28;20473;-77
2023/04/08 01:18:10;;;;;;;17.33;13.17;;;;;;;7.63;100.00;153318.94;5066435;28;20815;-78
2023/04/08 01:20:39;;;;;;;14.40;11.37;;;;;;;7.67;100.00;153330.59;5054149;28;20515;-77
2023/04/08 01:23:11;;;;;;;16.83;11.53;;;;;;;7.63;100.00;153318.94;5084418;28;20424;-77
2023/04/08 01:25:38;;;;;;;14.80;11.67;;;;;;;7.65;100.00;153324.16;5081075;28;20462;-77
2023/04/08 01:28:08;;;;;;;15.20;11.23;;;;;;;7.63;100.00;153318.94;5064937;28;20426;-77
2023/04/08 01:30:35;;;;;;;13.73;11.37;;;;;;;7.60;100.00;153312.50;5062214;28;20545;-77
2023/04/08 01:33:04;;;;;;;13.83;11.77;;;;;;;7.63;100.00;153320.25;5055656;28;20496;-77
2023/04/08 01:35:31;;;;;;;15.33;12.03;;;;;;;7.58;100.00;153306.03;5074034;28;20830;-78
2023/04/08 01:37:59;;;;;;;15.43;11.97;;;;;;;7.60;100.00;153312.50;5057491;28;20477;-78
2023/04/08 01:40:26;;;;;;;17.40;12.00;;;;;;;7.60;100.00;153311.25;5091215;28;20840;-77
2023/04/08 01:42:56;;;;;;;13.80;11.47;;;;;;;7.60;100.00;153311.25;5066063;28;20496;-78
2023/04/08 01:45:25;;;;;;;14.33;10.93;;;;;;;7.56;100.00;153300.88;5071896;28;20458;-77
2023/04/08 01:47:52;;;;;;;14.47;10.43;;;;;;;7.54;100.00;153295.72;5056592;28;20539;-77
2023/04/08 01:50:19;;;;;;;16.10;11.03;;;;;;;7.55;100.00;153298.28;5077150;28;20450;-77
2023/04/08 01:52:48;;;;;;;12.70;10.50;;;;;;;7.55;100.00;153299.59;5066782;28;20533;-77
2023/04/08 01:55:15;;;;;;;13.60;10.50;;;;;;;7.56;100.00;153300.88;5055291;28;20506;-77
2023/04/08 01:57:44;;;;;;;15.57;11.00;;;;;;;7.52;100.00;153291.81;5059368;28;20452;-78
2023/04/08 02:00:13;;;;;;;14.07;10.73;;;;;;;7.54;100.00;153295.72;5046829;28;20470;-78
2023/04/08 02:02:53;;;;;;;12.37;9.30;;;;;;;7.50;100.00;153285.38;5072019;28;20513;-77
2023/04/08 02:05:20;;;;;;;17.97;11.83;;;;;;;7.56;100.00;153302.19;5072823;28;20450;-77
2023/04/08 02:07:47;;;;;;;14.90;11.73;;;;;;;7.57;100.00;153304.72;5070146;28;20449;-77
2023/04/08 02:10:14;;;;;;;15.93;11.37;;;;;;;7.60;100.00;153311.25;5055280;28;20461;-77
2023/04/08 02:12:41;;;;;;;16.40;12.13;;;;;;;7.51;100.00;153287.97;5089319;28;21026;-78
2023/04/08 02:15:12;;;;;;;12.60;10.60;;;;;;;7.49;100.00;153282.81;5057656;28;20492;-77
2023/04/08 02:17:43;;;;;;;17.00;11.90;;;;;;;7.45;100.00;153272.47;5044549;28;20455;-78
2023/04/08 02:20:16;;;;;;;15.37;11.30;;;;;;;7.43;100.00;153267.31;5061532;28;20925;-78
2023/04/08 02:22:47;;;;;;;14.37;11.20;;;;;;;7.48;100.00;153280.22;5052958;28;20478;-77
2023/04/08 02:25:16;;;;;;;14.37;11.57;;;;;;;7.45;100.00;153272.47;5058676;28;20442;-77
2023/04/08 02:27:44;;;;;;;14.60;11.33;;;;;;;7.50;100.00;153285.38;5032853;28;20434;-77
2023/04/08 02:30:12;;;;;;;15.40;11.30;;;;;;;7.50;100.00;153285.38;5054097;28;20448;-77
2023/04/08 02:32:38;;;;;;;15.33;10.90;;;;;;;7.44;100.00;153269.91;5068692;28;20981;-77
2023/04/08 02:35:06;;;;;;;17.20;13.17;;;;;;;7.42;100.00;153264.69;5053938;28;20461;-77
2023/04/08 02:37:34;;;;;;;15.60;11.40;;;;;;;7.44;100.00;153269.91;5048894;28;20459;-77
2023/04/08 02:40:01;;;;;;;16.10;11.50;;;;;;;7.39;100.00;153258.25;5041750;28;20512;-77
2023/04/08 02:42:27;;;;;;;15.93;11.77;;;;;;;7.34;100.00;153245.34;5042378;28;20822;-77
2023/04/08 02:44:54;;;;;;;14.70;11.43;;;;;;;7.36;100.00;153251.78;5039557;28;20459;-77
2023/04/08 02:47:22;;;;;;;14.73;11.50;;;;;;;7.34;100.00;153245.34;5052337;28;20460;-77
2023/04/08 02:49:52;;;;;;;14.83;11.20;;;;;;;7.33;100.00;153244.03;5034500;28;20490;-77
2023/04/08 02:52:19;;;;;;;13.83;10.80;;;;;;;7.33;100.00;153244.03;5061826;28;20904;-77
2023/04/08 02:54:47;;;;;;;15.63;11.70;;;;;;;7.30;100.00;153236.34;5038819;28;20451;-77
2023/04/08 02:57:15;;;;;;;15.10;11.80;;;;;;;7.34;100.00;153245.34;5053649;28;20474;-77
2023/04/08 02:59:42;;;;;;;16.23;11.00;;;;;;;7.32;100.00;153240.19;5051694;28;20566;-77
2023/04/08 03:02:09;;;;;;;16.90;12.27;;;;;;;7.27;100.00;153227.28;5041409;28;20451;-77
2023/04/08 03:04:35;;;;;;;20.10;12.40;;;;;;;7.25;100.00;153223.38;5040408;28;20798;-77
2023/04/08 03:07:02;;;;;;;15.30;12.00;;;;;;;7.24;100.00;153220.81;5044544;28;20800;-77
2023/04/08 03:09:29;;;;;;;15.17;11.33;;;;;;;7.27;100.00;153228.56;5053530;28;20439;-76
2023/04/08 03:11:57;;;;;;;13.30;10.23;;;;;;;7.22;100.00;153215.66;5071532;28;20442;-77
2023/04/08 03:14:24;;;;;;;16.20;12.97;;;;;;;7.24;100.00;153220.81;5040878;28;20981;-76
2023/04/08 03:16:50;;;;;;;16.67;12.23;;;;;;;7.23;100.00;153218.22;5043915;28;20567;-78
2023/04/08 03:19:17;;;;;;;19.00;13.30;;;;;;;7.22;100.00;153215.66;5022205;28;20815;-78
2023/04/08 03:21:44;;;;;;;17.00;12.40;;;;;;;7.23;100.00;153216.91;5046768;28;20458;-78
2023/04/08 03:24:10;;;;;;;17.03;12.67;;;;;;;7.17;100.00;153202.75;5044315;28;20868;-78
2023/04/08 03:26:37;;;;;;;18.10;13.00;;;;;;;7.18;100.00;153205.31;5075238;28;20547;-78
2023/04/08 03:29:06;;;;;;;15.50;11.17;;;;;;;7.22;100.00;153215.66;5059835;28;20845;-78
2023/04/08 03:31:32;;;;;;;16.70;12.63;;;;;;;7.17;100.00;153202.75;5058292;28;20453;-78
2023/04/08 03:33:59;;;;;;;15.47;11.30;;;;;;;7.17;100.00;153201.47;5053097;28;20433;-78
2023/04/08 03:36:26;;;;;;;15.93;11.90;;;;;;;7.16;100.00;153200.16;5075181;28;20485;-78
2023/04/08 03:38:53;;;;;;;19.10;13.07;;;;;;;7.14;100.00;153195.00;5057146;28;20548;-78
2023/04/08 03:41:20;;;;;;;17.17;12.57;;;;;;;7.14;100.00;153195.00;5049021;28;20757;-78
2023/04/08 03:43:46;;;;;;;18.60;12.83;;;;;;;7.13;100.00;153192.41;5068778;28;20912;-78
2023/04/08 03:46:15;;;;;;;20.07;13.37;;;;;;;7.11;100.00;153187.25;5055075;28;20439;-77
2023/04/08 03:48:41;;;;;;;21.67;12.90;;;;;;;7.08;100.00;153179.50;5037698;28;20436;-77
2023/04/08 03:51:08;;;;;;;15.87;11.47;;;;;;;7.07;100.00;153176.91;5040696;28;20446;-77
2023/04/08 03:53:35;;;;;;;23.40;13.20;;;;;;;7.07;100.00;153176.91;5063412;28;20454;-76
2023/04/08 03:56:02;;;;;;;19.57;12.80;;;;;;;7.10;100.00;153184.66;5057385;28;20438;-77
2023/04/08 03:58:29;;;;;;;16.60;11.40;;;;;;;7.05;100.00;153171.75;5060476;28;20512;-76
2023/04/08 04:00:55;;;;;;;14.57;11.40;;;;;;;7.04;100.00;153169.16;5047241;28;20449;-76
2023/04/08 04:03:23;;;;;;;15.77;11.30;;;;;;;7.05;100.00;153171.75;5062041;28;20451;-76
2023/04/08 04:05:50;;;;;;;15.33;11.23;;;;;;;7.04;100.00;153167.91;5069416;28;20501;-77
2023/04/08 04:08:17;;;;;;;16.17;12.00;;;;;;;7.03;100.00;153166.59;5083633;28;20489;-77
2023/04/08 04:10:44;;;;;;;16.67;12.00;;;;;;;7.02;100.00;153162.69;5064341;28;20503;-77
2023/04/08 04:13:10;;;;;;;18.20;12.53;;;;;;;7.09;100.00;153180.81;5083379;28;20437;-77
2023/04/08 04:15:38;;;;;;;15.47;10.97;;;;;;;7.06;100.00;153173.03;5059420;28;20517;-77
2023/04/08 04:18:05;;;;;;;17.47;12.10;;;;;;;7.06;100.00;153173.03;5046734;28;20466;-77
2023/04/08 04:20:33;;;;;;;17.70;11.47;;;;;;;7.11;100.00;153185.94;5067227;28;20521;-77
2023/04/08 04:23:00;;;;;;;17.20;12.23;;;;;;;7.12;100.00;153189.81;5040472;28;21036;-77
2023/04/08 04:25:26;;;;;;;16.90;13.03;;;;;;;7.10;100.00;153184.66;5060843;28;20544;-77
2023/04/08 04:27:53;;;;;;;16.03;11.83;;;;;;;7.10;100.00;153184.66;5055663;28;20438;-77
2023/04/08 04:30:20;;;;;;;18.20;11.80;;;;;;;7.10;100.00;153184.66;5066154;28;20458;-77
2023/04/08 04:32:47;;;;;;;20.50;13.60;;;;;;;7.08;100.00;153178.19;5051528;28;20469;-77
2023/04/08 04:35:14;;;;;;;14.63;12.33;;;;;;;7.09;100.00;153182.09;5053899;28;20533;-76
2023/04/08 04:37:42;;;;;;;16.50;11.90;;;;;;;7.05;100.00;153171.75;5073577;28;20451;-77
2023/04/08 04:40:09;;;;;;;15.17;12.00;;;;;;;7.02;100.00;153164.00;5041570;28;20966;-77
2023/04/08 04:42:35;;;;;;;18.40;12.93;;;;;;;7.03;100.00;153165.28;5057031;28;20450;-77
2023/04/08 04:45:02;;;;;;;18.27;12.80;;;;;;;7.00;100.00;153157.53;5071948;28;20494;-77
2023/04/08 04:47:31;;;;;;;15.70;10.50;;;;;;;7.00;100.00;153158.84;5054115;28;20481;-76
2023/04/08 04:49:58;;;;;;;17.13;12.30;;;;;;;6.99;100.00;153155.00;5036752;28;20432;-76
2023/04/08 04:52:24;;;;;;;17.30;13.40;;;;;;;6.97;100.00;153151.09;5048058;28;20458;-76
2023/04/08 04:54:52;;;;;;;18.60;14.10;;;;;;;6.92;100.00;153138.19;5040629;28;20458;-76
2023/04/08 04:57:19;;;;;;;18.07;13.70;;;;;;;6.92;100.00;153136.88;5053827;28;20454;-76
2023/04/08 04:59:46;;;;;;;20.00;14.10;;;;;;;6.87;100.00;153125.28;5049466;28;20464;-76
2023/04/08 05:02:12;;;;;;;17.30;13.60;;;;;;;6.81;100.00;153109.78;5068560;28;20466;-76
2023/04/08 05:04:39;;;;;;;18.80;13.57;;;;;;;6.78;100.00;153100.78;5068952;28;20575;-77
2023/04/08 05:07:06;;;;;;;18.10;14.70;;;;;;;6.74;100.00;153091.72;5051263;28;21061;-76
2023/04/08 05:09:32;;;;;;;16.53;13.20;;;;;;;6.72;100.00;153087.81;5069599;28;20456;-77
2023/04/08 05:12:00;;;;;;;20.30;14.40;;;;;;;6.73;100.00;153090.41;5068820;28;20461;-77
2023/04/08 05:14:29;;;;;;;19.07;15.00;;;;;;;6.71;100.00;153083.97;5052217;28;20504;-76
2023/04/08 05:16:56;;;;;;;19.57;14.93;;;;;;;6.73;100.00;153090.41;5051548;28;20486;-76
2023/04/08 05:19:22;;;;;;;21.57;15.30;;;;;;;6.78;100.00;153100.78;5068199;28;20807;-76
2023/04/08 05:21:49;;;;;;;23.80;15.70;;;;;;;6.79;100.00;153104.63;5065493;28;20536;-76
2023/04/08 05:24:16;;;;;;;20.90;15.87;;;;;;;6.76;100.00;153096.88;5055040;28;20537;-76
2023/04/08 05:26:43;;;;;;;18.37;14.70;;;;;;;6.78;100.00;153102.03;5048918;28;20471;-82
2023/04/08 05:29:11;;;;;;;22.77;17.20;;;;;;;6.78;100.00;153100.78;5042722;28;20454;-81
2023/04/08 05:31:37;;;;;;;21.27;14.67;;;;;;;6.80;100.00;153107.22;5067478;28;20490;-82
2023/04/08 05:34:04;;;;;;;22.77;16.33;;;;;;;6.79;100.00;153104.63;5070672;28;21059;-82
2023/04/08 05:36:31;;;;;;;25.00;17.07;;;;;;;6.84;100.00;153116.22;5052088;28;20446;-82
2023/04/08 05:38:58;;;;;;;20.30;15.67;;;;;;;6.84;100.00;153117.53;5042306;28;20454;-82
2023/04/08 05:41:25;;;;;;;20.40;14.23;;;;;;;6.85;100.00;153118.81;5068280;28;20953;-82
2023/04/08 05:43:52;;;;;;;24.07;16.13;;;;;;;6.87;100.00;153123.97;5051417;28;20446;-82
2023/04/08 05:46:20;;;;;;;22.90;16.13;;;;;;;6.88;100.00;153126.59;5069541;28;20811;-82
2023/04/08 05:48:48;;;;;;;25.20;15.00;;;;;;;6.92;100.00;153138.19;5067413;28;20454;-82
2023/04/08 05:51:16;;;;;;;24.40;17.00;;;;;;;6.88;100.00;153126.59;5068227;28;20533;-82
2023/04/08 05:53:45;;;;;;;21.97;16.00;;;;;;;6.86;100.00;153122.69;5050688;28;20447;-82
2023/04/08 05:56:12;;;;;;;22.50;16.23;;;;;;;6.86;100.00;153122.69;5041973;28;20443;-82
2023/04/08 05:58:39;;;;;;;21.70;15.80;;;;;;;6.87;100.00;153125.28;5057693;28;20527;-82
2023/04/08 06:01:06;;;;;;;20.77;16.03;;;;;;;6.88;100.00;153127.88;5051295;28;20473;-81
2023/04/08 06:03:34;;;;;;;25.40;17.50;;;;;;;6.92;100.00;153138.19;5048832;28;21023;-82
2023/04/08 06:06:01;;;;;;;19.50;14.37;;;;;;;6.91;100.00;153134.34;5051032;28;20445;-81
2023/04/08 06:08:27;;;;;;;24.70;16.67;;;;;;;6.89;100.00;153129.13;5049634;28;20486;-81
2023/04/08 06:10:54;;;;;;;22.33;15.90;;;;;;;6.86;100.00;153122.69;5068008;28;20466;-81
2023/04/08 06:13:21;;;;;;;21.67;16.10;;;;;;;6.92;100.00;153138.19;5065424;28;20553;-81
2023/04/08 06:15:49;;;;;;;18.23;14.57;;;;;;;6.92;100.00;153138.19;5068444;28;20500;-82
2023/04/08 06:18:16;;;;;;;22.47;16.37;;;;;;;6.98;100.00;153153.69;5058842;28;20790;-81
2023/04/08 06:20:45;;;;;;;21.50;15.33;;;;;;;6.99;100.00;153155.00;5050334;28;20476;-81
2023/04/08 06:23:11;;;;;;;21.27;14.73;;;;;;;6.94;100.00;153143.34;5065037;28;20458;-82
2023/04/08 06:25:38;;;;;;;21.97;14.63;;;;;;;6.98;100.00;153153.69;5069574;28;20874;-81
2023/04/08 06:28:05;;;;;;;20.93;14.33;;;;;;;6.99;100.00;153155.00;5052023;28;20541;-81
2023/04/08 06:30:38;;;;;;;20.03;14.23;;;;;;;6.97;100.00;153151.09;5041714;28;20524;-80
2023/04/08 06:33:08;;;;;;;21.97;15.10;;;;;;;6.99;100.00;153156.25;5019441;28;20473;-81
2023/04/08 06:35:36;;;;;;;17.73;13.73;;;;;;;6.99;100.00;153156.25;5068853;28;20545;-81
2023/04/08 06:38:06;;;;;;;23.40;15.00;;;;;;;7.03;100.00;153166.59;5053004;28;20466;-80
2023/04/08 06:40:34;;;;;;;20.73;14.80;;;;;;;7.04;100.00;153169.16;5043286;28;20478;-81
2023/04/08 06:43:02;;;;;;;21.67;14.60;;;;;;;7.08;100.00;153179.50;5068999;28;20450;-81
2023/04/08 06:45:35;;;;;;;21.03;15.60;;;;;;;7.08;100.00;153179.50;5044116;28;20470;-81
2023/04/08 06:48:03;;;;;;;21.03;14.87;;;;;;;7.11;100.00;153185.94;5050897;28;20461;-81
2023/04/08 06:50:31;;;;;;;22.67;15.47;;;;;;;7.12;100.00;153189.81;5030770;28;20454;-81
2023/04/08 06:52:59;;;;;;;18.80;13.30;;;;;;;7.12;100.00;153188.56;5066808;28;20488;-81
2023/04/08 06:55:28;;;;;;;20.43;14.60;;;;;;;7.14;100.00;153195.00;5048055;28;20792;-81
2023/04/08 06:57:55;;;;;;;19.73;13.93;;;;;;;7.18;100.00;153205.31;5049617;28;20542;-81
2023/04/08 07:00:22;;;;;;;17.40;13.60;;;;;;;7.22;100.00;153215.66;5071350;28;20473;-82
2023/04/08 07:02:49;;;;;;;20.00;14.67;;;;;;;7.20;100.00;153210.47;5032830;28;20532;-82
2023/04/08 07:05:15;;;;;;;18.50;14.30;;;;;;;7.17;100.00;153202.75;5051641;28;20540;-82
2023/04/08 07:07:42;;;;;;;20.80;14.77;;;;;;;7.18;100.00;153205.31;5047988;28;20456;-83
2023/04/08 07:10:11;;;;;;;18.30;13.20;;;;;;;7.21;100.00;153211.78;5037816;28;20454;-82
2023/04/08 07:12:40;;;;;;;19.67;13.67;;;;;;;7.24;100.00;153220.81;5065490;28;20462;-82
2023/04/08 07:15:08;;;;;;;17.03;12.33;;;;;;;7.27;100.00;153227.28;5036545;28;20468;-82
2023/04/08 07:17:35;;;;;;;17.00;13.27;;;;;;;7.26;100.00;153225.97;5054152;28;20936;-82
2023/04/08 07:20:02;;;;;;;21.30;15.60;;;;;;;7.34;100.00;153245.34;5072314;28;20470;-82
2023/04/08 07:22:29;;;;;;;17.50;12.57;;;;;;;7.33;100.00;153244.03;5054108;28;20454;-82
2023/04/08 07:24:56;;;;;;;17.60;12.87;;;;;;;7.32;100.00;153241.47;5069257;28;20544;-82
2023/04/08 07:27:22;;;;;;;16.17;12.20;;;;;;;7.38;100.00;153254.41;5053385;28;20439;-82
2023/04/08 07:29:54;;;;;;;16.80;12.83;;;;;;;7.36;100.00;153251.78;5051651;28;20450;-82
2023/04/08 07:32:20;;;;;;;16.90;13.40;;;;;;;7.39;100.00;153257.00;5069009;28;20477;-83
2023/04/08 07:34:47;;;;;;;16.27;12.70;;;;;;;7.39;100.00;153258.25;5053425;28;20446;-83
2023/04/08 07:37:14;;;;;;;17.40;12.70;;;;;;;7.42;100.00;153264.69;5069739;28;20446;-83
2023/04/08 07:39:41;;;;;;;15.60;11.30;;;;;;;7.45;100.00;153273.75;5062618;28;20483;-83
2023/04/08 07:42:07;;;;;;;17.00;12.60;;;;;;;7.42;100.00;153266.00;5054183;28;21016;-83
2023/04/08 07:44:34;;;;;;;15.77;11.63;;;;;;;7.46;100.00;153275.06;5056835;28;20533;-82
2023/04/08 07:47:02;;;;;;;20.20;13.77;;;;;;;7.54;100.00;153295.72;5072704;28;20450;-83
2023/04/08 07:49:29;;;;;;;15.67;12.63;;;;;;;7.59;100.00;153308.63;5060130;28;20453;-83
2023/04/08 07:51:57;;;;;;;17.67;14.07;;;;;;;7.65;100.00;153325.41;5059369;28;21031;-83
2023/04/08 07:54:24;;;;;;;17.50;13.00;;;;;;;7.69;100.00;153335.75;5068408;28;20991;-83
2023/04/08 07:56:51;;;;;;;18.10;13.63;;;;;;;7.78;100.00;153357.72;5071390;28;20485;-83
2023/04/08 07:59:18;;;;;;;15.80;11.70;;;;;;;7.80;100.00;153364.19;5069470;28;20484;-82
2023/04/08 08:01:45;;;;;;;14.50;11.83;;;;;;;7.84;100.00;153373.19;5053489;28;20474;-82
2023/04/08 08:04:13;;;;;;;14.30;11.77;;;;;;;7.88;100.00;153383.56;5065732;28;20492;-83
2023/04/08 08:06:40;;;;;;;15.63;13.23;;;;;;;7.91;100.00;153392.63;5073225;28;20461;-82
2023/04/08 08:09:07;;;;;;;18.07;13.63;;;;;;;7.99;100.00;153412.00;5027614;28;20451;-83
2023/04/08 08:11:33;;;;;;;17.23;12.67;;;;;;;8.03;100.00;153421.00;5053902;28;20976;-83
2023/04/08 08:14:00;;;;;;;17.67;12.60;;;;;;;8.12;100.00;153444.28;5052320;28;20482;-83
2023/04/08 08:16:29;;;;;;;17.00;12.53;;;;;;;8.14;100.00;153449.44;5071152;28;20605;-83
2023/04/08 08:18:56;;;;;;;16.80;12.23;;;;;;;8.16;100.00;153455.91;5028765;28;20529;-82
2023/04/08 08:21:25;;;;;;;16.30;12.87;;;;;;;8.23;100.00;153474.03;5058275;28;20473;-82
2023/04/08 08:23:52;;;;;;;15.90;12.10;;;;;;;8.22;100.00;153470.13;5065704;28;20458;-82
2023/04/08 08:26:18;;;;;;;14.37;12.43;;;;;;;8.25;100.00;153477.88;5046971;28;20455;-83
2023/04/08 08:28:45;;;;;;;17.77;13.37;;;;;;;8.32;100.00;153497.31;5051001;28;20454;-83
2023/04/08 08:31:12;;;;;;;17.93;12.73;;;;;;;8.35;100.00;153505.06;5044831;28;20471;-83
2023/04/08 08:33:39;;;;;;;17.10;12.27;;;;;;;8.37;100.00;153508.94;5049124;28;20488;-83
2023/04/08 08:36:06;;;;;;;19.27;13.17;;;;;;;8.35;100.00;153505.06;5052697;28;20592;-83
2023/04/08 08:38:34;;;;;;;14.00;11.33;;;;;;;8.43;100.00;153525.75;5050670;28;20465;-83
2023/04/08 08:41:02;;;;;;;15.17;12.00;;;;;;;8.42;100.00;153523.16;5042634;28;20482;-82
2023/04/08 08:43:32;;;;;;;16.20;12.90;;;;;;;8.44;100.00;153528.34;5051110;28;20783;-83
2023/04/08 08:45:59;;;;;;;16.60;13.77;;;;;;;8.50;100.00;153542.53;5069178;28;20482;-83
2023/04/08 08:48:26;;;;;;;15.97;12.37;;;;;;;8.58;100.00;153564.53;5050958;28;21009;-83
2023/04/08 08:50:54;;;;;;;13.93;12.03;;;;;;;8.63;100.00;153574.88;5042788;28;21011;-82
2023/04/08 08:53:22;;;;;;;15.80;12.80;;;;;;;8.68;100.00;153587.81;5049407;28;20453;-83
2023/04/08 08:55:50;;;;;;;17.57;14.47;;;;;;;8.70;100.00;153592.97;5051467;28;20949;-82
2023/04/08 08:58:16;;;;;;;18.00;13.60;;;;;;;8.79;100.00;153617.50;5035860;28;20478;-83
2023/04/08 09:00:43;;;;;;;17.40;14.70;;;;;;;8.92;100.00;153649.88;5065070;28;20497;-83
2023/04/08 09:03:18;;;;;;;17.80;13.83;;;;;;;9.00;100.00;153670.56;5033837;28;20585;-83
2023/04/08 09:06:04;;;;;;;17.50;14.97;;;;;;;9.07;100.00;153689.97;5042489;28;20511;-86
2023/04/08 09:08:32;;;;;;;16.50;13.23;;;;;;;9.15;100.00;153710.66;5032236;28;20451;-77
2023/04/08 09:11:13;;;;;;;16.30;13.20;;;;;;;9.25;100.00;153735.22;5026134;28;20960;-77
2023/04/08 09:13:41;;;;;;;16.80;14.43;;;;;;;9.34;100.00;153758.50;5032632;28;20470;-77
2023/04/08 09:16:09;;;;;;;16.00;13.30;;;;;;;9.35;100.00;153761.06;5065513;28;20473;-77
2023/04/08 09:18:36;;;;;;;15.03;12.63;;;;;;;9.41;96.92;153775.31;5030247;28;20450;-77
2023/04/08 09:21:04;;;;;;;15.10;13.50;;;;;;;9.53;95.21;153807.63;5049430;28;20563;-77
2023/04/08 09:23:38;;;;;;;15.40;13.50;;;;;;;9.43;91.64;153781.75;5048436;28;21976;-77
2023/04/08 09:26:08;;;;;;;15.80;13.10;;;;;;;9.44;92.28;153784.38;5041830;28;20482;-77
2023/04/08 09:28:36;;;;;;;17.20;13.10;;;;;;;9.49;90.47;153796.00;5046138;28;20470;-77
2023/04/08 09:31:18;;;;;;;15.47;13.23;;;;;;;9.57;87.90;153818.00;5049009;28;20991;-77
2023/04/08 09:33:46;;;;;;;15.70;13.40;;;;;;;9.51;86.42;153802.47;5058827;28;20447;-77
2023/04/08 09:36:13;;;;;;;14.97;13.30;;;;;;;9.54;89.34;153808.94;5050148;28;20466;-77
2023/04/08 09:38:40;;;;;;;17.10;14.50;;;;;;;9.64;87.71;153836.09;5042617;28;20770;-77
2023/04/08 09:41:08;;;;;;;17.03;13.33;;;;;;;9.68;83.68;153846.47;5048467;28;20478;-77
2023/04/08 09:43:36;;;;;;;14.07;12.27;;;;;;;9.69;82.77;153849.03;5048064;28;20813;-77
2023/04/08 09:46:06;;;;;;;16.50;13.60;;;;;;;9.88;89.73;153896.91;5066526;28;20457;-77
2023/04/08 09:48:40;;;;;;;16.07;13.10;;;;;;;9.95;87.96;153915.06;5049985;28;20471;-77
2023/04/08 09:51:08;;;;;;;14.27;12.00;;;;;;;9.98;79.74;153922.78;5049350;28;20863;-77
2023/04/08 09:53:38;;;;;;;16.27;13.17;;;;;;;9.82;77.04;153882.69;5067841;28;20455;-78
2023/04/08 09:56:08;;;;;;;14.63;12.57;;;;;;;9.85;80.12;153887.88;5066257;28;20438;-77
2023/04/08 09:58:39;;;;;;;14.17;12.60;;;;;;;9.98;81.50;153922.78;5049817;28;20546;-77
2023/04/08 10:01:07;;;;;;;15.10;13.20;;;;;;;10.10;77.85;153952.56;5065190;28;20821;-77
2023/04/08 10:03:37;;;;;;;14.40;12.90;;;;;;;10.12;78.30;153959.09;5049585;28;20454;-77
2023/04/08 10:06:04;;;;;;;14.87;13.13;;;;;;;10.14;78.57;153963.00;5026935;28;20455;-77
2023/04/08 10:08:31;;;;;;;15.60;13.20;;;;;;;10.30;76.48;154004.38;5051454;28;20447;-77
2023/04/08 10:10:58;;;;;;;15.33;12.47;;;;;;;10.29;73.54;154003.13;5050094;28;20473;-77
2023/04/08 10:13:27;;;;;;;14.37;12.27;;;;;;;10.28;75.62;154000.50;5069186;28;20474;-77
2023/04/08 10:16:20;;;;;;;14.63;12.07;;;;;;;10.34;74.37;154016.06;5033712;28;20474;-77
2023/04/08 10:18:48;;;;;;;14.87;11.93;;;;;;;10.38;72.71;154025.09;5041523;28;20534;-77
2023/04/08 10:21:34;;;;;;;15.07;11.67;;;;;;;10.27;70.84;153996.66;5047756;28;20470;-77
2023/04/08 10:24:05;;;;;;;13.80;11.80;;;;;;;10.21;70.68;153982.41;5066026;28;20446;-77
2023/04/08 10:26:33;;;;;;;17.60;13.43;;;;;;;10.19;74.14;153977.19;5049331;28;20450;-77
2023/04/08 10:29:30;;;;;;;14.43;12.67;;;;;;;10.25;82.83;153991.44;5063566;28;20441;-77
2023/04/08 10:31:59;;;;;;;14.80;12.73;;;;;;;10.20;79.88;153978.50;5000476;28;20556;-77
2023/04/08 10:34:27;;;;;;;17.07;14.10;;;;;;;10.19;77.98;153977.19;5065417;28;20988;-77
2023/04/08 10:36:55;;;;;;;15.30;12.20;;;;;;;10.24;74.40;153988.88;5065599;28;20560;-77
2023/04/08 10:39:22;;;;;;;12.93;11.50;;;;;;;10.16;72.19;153968.16;5042380;28;20455;-77
2023/04/08 10:41:50;;;;;;;15.90;13.10;;;;;;;9.91;71.24;153904.69;5050913;28;20497;-77
2023/04/08 10:44:17;;;;;;;16.80;13.40;;;;;;;9.86;73.36;153890.44;5065524;28;20529;-77
2023/04/08 10:46:44;;;;;;;14.73;12.83;;;;;;;9.75;72.45;153864.56;5067546;28;20540;-77
2023/04/08 10:49:13;;;;;;;16.13;13.27;;;;;;;9.74;73.82;153861.97;5049481;28;20567;-77
2023/04/08 10:51:40;;;;;;;14.20;12.63;;;;;;;9.80;74.40;153877.50;5033388;28;20535;-77
2023/04/08 10:54:07;;;;;;;18.17;13.53;;;;;;;9.80;73.21;153877.50;5065617;28;21060;-77
2023/04/08 10:56:35;;;;;;;15.20;13.13;;;;;;;9.65;72.31;153838.72;5043783;28;20462;-77
2023/04/08 10:59:02;;;;;;;16.07;13.40;;;;;;;9.61;72.94;153828.34;5042455;28;20450;-77
2023/04/08 11:01:38;;;;;;;15.60;13.63;;;;;;;9.58;72.96;153820.56;5067605;28;20478;-77
2023/04/08 11:04:11;;;;;;;15.97;14.00;;;;;;;9.63;73.93;153832.25;5040708;28;20451;-76
2023/04/08 11:06:39;;;;;;;15.03;12.17;;;;;;;9.47;71.02;153790.84;5066518;28;20450;-79
2023/04/08 11:09:05;;;;;;;14.67;13.00;;;;;;;9.45;71.68;153786.94;5065126;28;20435;-77
2023/04/08 11:11:32;;;;;;;15.00;13.10;;;;;;;9.54;74.62;153810.25;5059146;28;20458;-77
2023/04/08 11:13:59;;;;;;;12.90;11.50;;;;;;;9.63;71.32;153833.53;5066716;28;20544;-78